sensor_id;sensor_type;location;lat;lon;timestamp;pressure;altitude;pressure_sealevel;temperature;humidity
33075;BME280;19433;51.292;6.868;2023-07-29T00:01:18;99631.28;;;18.59;100.00
33075;BME280;19433;51.292;6.868;2023-07-29T00:03:43;99632.44;;;18.64;100.00
33075;BME280;19433;51.292;6.868;2023-07-29T00:06:09;99634.09;;;18.75;100.00
33075;BME280;19433;51.292;6.868;2023-07-29T00:08:34;99631.03;;;18.76;100.00
33075;BME280;19433;51.292;6.868;2023-07-29T00:11:00;99632.72;;;18.77;100.00
33075;BME280;19433;51.292;6.868;2023-07-29T00:13:25;99622.63;;;18.76;100.00
33075;BME280;19433;51.292;6.868;2023-07-29T00:15:53;99624.31;;;18.77;100.00
33075;BME280;19433;51.292;6.868;2023-07-29T00:18:19;99617.88;;;18.77;100.00
33075;BME280;19433;51.292;6.868;2023-07-29T00:20:44;99618.72;;;18.77;100.00
33075;BME280;19433;51.292;6.868;2023-07-29T00:23:10;99604.16;;;18.70;100.00
33075;BME280;19433;51.292;6.868;2023-07-29T00:25:35;99612.81;;;18.69;100.00
33075;BME280;19433;51.292;6.868;2023-07-29T00:28:01;99612.84;;;18.79;100.00
33075;BME280;19433;51.292;6.868;2023-07-29T00:30:26;99605.84;;;18.86;100.00
33075;BME280;19433;51.292;6.868;2023-07-29T00:32:51;99604.47;;;18.79;100.00
33075;BME280;19433;51.292;6.868;2023-07-29T00:35:17;99610.31;;;18.82;100.00
33075;BME280;19433;51.292;6.868;2023-07-29T00:37:42;99603.03;;;18.71;100.00
33075;BME280;19433;51.292;6.868;2023-07-29T00:40:27;99607.53;;;18.77;100.00
33075;BME280;19433;51.292;6.868;2023-07-29T00:42:53;99601.09;;;18.77;100.00
33075;BME280;19433;51.292;6.868;2023-07-29T00:45:18;99609.22;;;18.78;100.00
33075;BME280;19433;51.292;6.868;2023-07-29T00:47:44;99603.03;;;18.71;100.00
33075;BME280;19433;51.292;6.868;2023-07-29T00:50:13;99598.84;;;18.64;100.00
33075;BME280;19433;51.292;6.868;2023-07-29T00:52:40;99597.72;;;18.70;100.00
33075;BME280;19433;51.292;6.868;2023-07-29T00:55:06;99592.06;;;18.44;100.00
33075;BME280;19433;51.292;6.868;2023-07-29T00:57:32;99589.53;;;18.27;100.00
33075;BME280;19433;51.292;6.868;2023-07-29T00:59:59;99604.03;;;18.19;100.00
33075;BME280;19433;51.292;6.868;2023-07-29T01:02:24;99603.75;;;18.16;100.00
33075;BME280;19433;51.292;6.868;2023-07-29T01:04:53;99590.34;;;18.13;100.00
33075;BME280;19433;51.292;6.868;2023-07-29T01:07:35;99590.84;;;18.00;100.00
33075;BME280;19433;51.292;6.868;2023-07-29T01:10:18;99588.91;;;18.10;100.00
33075;BME280;19433;51.292;6.868;2023-07-29T01:12:53;99584.19;;;18.21;100.00
33075;BME280;19433;51.292;6.868;2023-07-29T01:15:26;99579.44;;;18.21;100.00
33075;BME280;19433;51.292;6.868;2023-07-29T01:18:05;99589.75;;;18.11;100.00
33075;BME280;19433;51.292;6.868;2023-07-29T01:20:33;99578.59;;;18.11;100.00
33075;BME280;19433;51.292;6.868;2023-07-29T01:23:01;99584.16;;;18.11;100.00
33075;BME280;19433;51.292;6.868;2023-07-29T01:25:26;99570.50;;;18.14;100.00
33075;BME280;19433;51.292;6.868;2023-07-29T01:27:52;99567.13;;;18.22;100.00
33075;BME280;19433;51.292;6.868;2023-07-29T01:30:19;99554.25;;;18.06;100.00
33075;BME280;19433;51.292;6.868;2023-07-29T01:32:51;99556.78;;;18.13;100.00
33075;BME280;19433;51.292;6.868;2023-07-29T01:35:27;99575.81;;;18.16;100.00
33075;BME280;19433;51.292;6.868;2023-07-29T01:38:04;99564.34;;;18.12;100.00
33075;BME280;19433;51.292;6.868;2023-07-29T01:40:30;99580.84;;;18.24;100.00
33075;BME280;19433;51.292;6.868;2023-07-29T01:42:55;99579.47;;;18.42;100.00
33075;BME280;19433;51.292;6.868;2023-07-29T01:45:24;99572.22;;;18.41;100.00
33075;BME280;19433;51.292;6.868;2023-07-29T01:47:52;99569.97;;;18.38;100.00
33075;BME280;19433;51.292;6.868;2023-07-29T01:50:18;99573.63;;;18.43;100.00
33075;BME280;19433;51.292;6.868;2023-07-29T01:52:43;99568.28;;;18.42;100.00
33075;BME280;19433;51.292;6.868;2023-07-29T01:55:08;99567.47;;;18.46;100.00
33075;BME280;19433;51.292;6.868;2023-07-29T01:57:34;99565.22;;;18.53;100.00
33075;BME280;19433;51.292;6.868;2023-07-29T01:59:59;99568.03;;;18.48;100.00
33075;BME280;19433;51.292;6.868;2023-07-29T02:02:24;99563.84;;;18.46;100.00
33075;BME280;19433;51.292;6.868;2023-07-29T02:04:50;99552.38;;;18.47;100.00
33075;BME280;19433;51.292;6.868;2023-07-29T02:07:17;99550.13;;;18.44;100.00
33075;BME280;19433;51.292;6.868;2023-07-29T02:09:43;99552.63;;;18.41;100.00
33075;BME280;19433;51.292;6.868;2023-07-29T02:12:08;99550.69;;;18.41;100.00
33075;BME280;19433;51.292;6.868;2023-07-29T02:14:34;99537.25;;;18.38;100.00
33075;BME280;19433;51.292;6.868;2023-07-29T02:16:59;99535.84;;;18.25;100.00
33075;BME280;19433;51.292;6.868;2023-07-29T02:19:24;99541.69;;;18.34;100.00
33075;BME280;19433;51.292;6.868;2023-07-29T02:21:49;99540.03;;;18.38;100.00
33075;BME280;19433;51.292;6.868;2023-07-29T02:24:15;99546.19;;;18.25;100.00
33075;BME280;19433;51.292;6.868;2023-07-29T02:26:41;99557.34;;;18.15;100.00
33075;BME280;19433;51.292;6.868;2023-07-29T02:29:06;99547.59;;;18.27;100.00
33075;BME280;19433;51.292;6.868;2023-07-29T02:31:31;99557.41;;;18.45;100.00
33075;BME280;19433;51.292;6.868;2023-07-29T02:33:57;99559.03;;;18.36;100.00
33075;BME280;19433;51.292;6.868;2023-07-29T02:36:22;99548.69;;;18.26;100.00
33075;BME280;19433;51.292;6.868;2023-07-29T02:38:47;99557.94;;;18.32;100.00
33075;BME280;19433;51.292;6.868;2023-07-29T02:41:13;99544.50;;;18.34;100.00
33075;BME280;19433;51.292;6.868;2023-07-29T02:43:38;99546.75;;;18.42;100.00
33075;BME280;19433;51.292;6.868;2023-07-29T02:46:05;99546.75;;;18.32;100.00
33075;BME280;19433;51.292;6.868;2023-07-29T02:48:30;99554.28;;;18.26;100.00
33075;BME280;19433;51.292;6.868;2023-07-29T02:50:56;99543.38;;;18.25;100.00
33075;BME280;19433;51.292;6.868;2023-07-29T02:53:22;99549.84;;;18.46;100.00
33075;BME280;19433;51.292;6.868;2023-07-29T02:55:48;99542.53;;;18.35;100.00
33075;BME280;19433;51.292;6.868;2023-07-29T02:58:13;99554.28;;;18.37;100.00
33075;BME280;19433;51.292;6.868;2023-07-29T03:00:38;99550.41;;;18.33;100.00
33075;BME280;19433;51.292;6.868;2023-07-29T03:03:07;99552.38;;;18.47;100.00
33075;BME280;19433;51.292;6.868;2023-07-29T03:05:32;99555.72;;;18.44;100.00
33075;BME280;19433;51.292;6.868;2023-07-29T03:07:57;99549.00;;;18.40;100.00
33075;BME280;19433;51.292;6.868;2023-07-29T03:10:23;99549.00;;;18.50;100.00
33075;BME280;19433;51.292;6.868;2023-07-29T03:12:48;99552.91;;;18.39;100.00
33075;BME280;19433;51.292;6.868;2023-07-29T03:15:13;99553.47;;;18.36;100.00
33075;BME280;19433;51.292;6.868;2023-07-29T03:17:39;99554.84;;;18.23;100.00
33075;BME280;19433;51.292;6.868;2023-07-29T03:20:04;99553.19;;;18.43;100.00
33075;BME280;19433;51.292;6.868;2023-07-29T03:22:30;99556.81;;;18.38;100.00
33075;BME280;19433;51.292;6.868;2023-07-29T03:24:55;99554.03;;;18.38;100.00
33075;BME280;19433;51.292;6.868;2023-07-29T03:27:20;99547.88;;;18.41;100.00
33075;BME280;19433;51.292;6.868;2023-07-29T03:29:46;99542.84;;;18.33;100.00
33075;BME280;19433;51.292;6.868;2023-07-29T03:32:11;99539.47;;;18.26;100.00
33075;BME280;19433;51.292;6.868;2023-07-29T03:34:36;99542.84;;;18.28;100.00
33075;BME280;19433;51.292;6.868;2023-07-29T03:37:02;99555.69;;;18.24;100.00
33075;BME280;19433;51.292;6.868;2023-07-29T03:39:27;99548.41;;;18.18;100.00
33075;BME280;19433;51.292;6.868;2023-07-29T03:41:52;99543.66;;;18.23;100.00
33075;BME280;19433;51.292;6.868;2023-07-29T03:44:18;99529.97;;;18.32;100.00
33075;BME280;19433;51.292;6.868;2023-07-29T03:46:44;99541.72;;;18.29;100.00
33075;BME280;19433;51.292;6.868;2023-07-29T03:49:09;99528.59;;;18.45;100.00
33075;BME280;19433;51.292;6.868;2023-07-29T03:51:34;99513.75;;;18.39;100.00
33075;BME280;19433;51.292;6.868;2023-07-29T03:54:00;99509.56;;;18.57;100.00
33075;BME280;19433;51.292;6.868;2023-07-29T03:56:25;99520.72;;;18.37;100.00
33075;BME280;19433;51.292;6.868;2023-07-29T03:58:52;99547.56;;;18.22;100.00
33075;BME280;19433;51.292;6.868;2023-07-29T04:01:17;99545.88;;;18.11;100.00
33075;BME280;19433;51.292;6.868;2023-07-29T04:03:42;99555.41;;;18.15;100.00
33075;BME280;19433;51.292;6.868;2023-07-29T04:06:08;99546.16;;;18.15;100.00
33075;BME280;19433;51.292;6.868;2023-07-29T04:08:33;99550.66;;;18.16;100.00
33075;BME280;19433;51.292;6.868;2023-07-29T04:10:58;99541.44;;;18.25;100.00
33075;BME280;19433;51.292;6.868;2023-07-29T04:13:24;99535.53;;;18.22;100.00
33075;BME280;19433;51.292;6.868;2023-07-29T04:15:49;99538.91;;;18.24;100.00
33075;BME280;19433;51.292;6.868;2023-07-29T04:18:14;99540.31;;;18.16;100.00
33075;BME280;19433;51.292;6.868;2023-07-29T04:20:40;99553.66;;;18.04;100.00
33075;BME280;19433;51.292;6.868;2023-07-29T04:23:05;99555.31;;;17.85;100.00
33075;BME280;19433;51.292;6.868;2023-07-29T04:25:30;99547.19;;;17.88;100.00
33075;BME280;19433;51.292;6.868;2023-07-29T04:27:55;99549.47;;;17.86;100.00
33075;BME280;19433;51.292;6.868;2023-07-29T04:30:22;99557.50;;;17.78;100.00
33075;BME280;19433;51.292;6.868;2023-07-29T04:32:48;99583.47;;;17.68;100.00
33075;BME280;19433;51.292;6.868;2023-07-29T04:35:13;99586.00;;;17.70;100.00
33075;BME280;19433;51.292;6.868;2023-07-29T04:37:39;99584.03;;;17.70;100.00
33075;BME280;19433;51.292;6.868;2023-07-29T04:40:05;99597.63;;;17.62;100.00
33075;BME280;19433;51.292;6.868;2023-07-29T04:42:31;99595.13;;;17.60;100.00
33075;BME280;19433;51.292;6.868;2023-07-29T04:44:56;99593.44;;;17.59;100.00
33075;BME280;19433;51.292;6.868;2023-07-29T04:47:21;99589.81;;;17.58;100.00
33075;BME280;19433;51.292;6.868;2023-07-29T04:49:47;99581.16;;;17.55;100.00
33075;BME280;19433;51.292;6.868;2023-07-29T04:52:12;99596.72;;;17.46;100.00
33075;BME280;19433;51.292;6.868;2023-07-29T04:54:37;99593.34;;;17.44;100.00
33075;BME280;19433;51.292;6.868;2023-07-29T04:57:03;99593.34;;;17.44;100.00
33075;BME280;19433;51.292;6.868;2023-07-29T04:59:28;99586.38;;;17.41;100.00
33075;BME280;19433;51.292;6.868;2023-07-29T05:01:54;99575.47;;;17.40;100.00
33075;BME280;19433;51.292;6.868;2023-07-29T05:04:19;99567.13;;;17.45;100.00
33075;BME280;19433;51.292;6.868;2023-07-29T05:06:44;99557.63;;;17.46;100.00
33075;BME280;19433;51.292;6.868;2023-07-29T05:09:16;99551.91;;;17.68;100.00
33075;BME280;19433;51.292;6.868;2023-07-29T05:11:43;99552.25;;;17.86;100.00
33075;BME280;19433;51.292;6.868;2023-07-29T05:14:11;99558.97;;;17.96;100.00
33075;BME280;19433;51.292;6.868;2023-07-29T05:16:36;99548.66;;;18.06;100.00
33075;BME280;19433;51.292;6.868;2023-07-29T05:19:01;99550.63;;;18.21;100.00
33075;BME280;19433;51.292;6.868;2023-07-29T05:21:27;99550.38;;;18.17;100.00
33075;BME280;19433;51.292;6.868;2023-07-29T05:23:52;99551.47;;;18.11;100.00
33075;BME280;19433;51.292;6.868;2023-07-29T05:26:18;99561.50;;;17.97;100.00
33075;BME280;19433;51.292;6.868;2023-07-29T05:28:43;99570.13;;;17.85;100.00
33075;BME280;19433;51.292;6.868;2023-07-29T05:31:08;99584.66;;;17.82;100.00
33075;BME280;19433;51.292;6.868;2023-07-29T05:33:34;99581.78;;;17.72;100.00
33075;BME280;19433;51.292;6.868;2023-07-29T05:36:01;99587.94;;;17.69;100.00
33075;BME280;19433;51.292;6.868;2023-07-29T05:38:26;99617.72;;;17.53;100.00
33075;BME280;19433;51.292;6.868;2023-07-29T05:40:51;99621.94;;;17.56;100.00
33075;BME280;19433;51.292;6.868;2023-07-29T05:43:17;99615.78;;;17.59;100.00
33075;BME280;19433;51.292;6.868;2023-07-29T05:45:42;99607.97;;;17.61;100.00
33075;BME280;19433;51.292;6.868;2023-07-29T05:48:07;99616.72;;;17.70;100.00
33075;BME280;19433;51.292;6.868;2023-07-29T05:50:32;99611.44;;;17.78;100.00
33075;BME280;19433;51.292;6.868;2023-07-29T05:52:58;99600.81;;;17.75;100.00
33075;BME280;19433;51.292;6.868;2023-07-29T05:55:23;99602.19;;;17.73;100.00
33075;BME280;19433;51.292;6.868;2023-07-29T05:57:48;99623.16;;;17.70;100.00
33075;BME280;19433;51.292;6.868;2023-07-29T06:00:14;99639.81;;;17.60;100.00
33075;BME280;19433;51.292;6.868;2023-07-29T06:02:39;99634.56;;;17.64;100.00
33075;BME280;19433;51.292;6.868;2023-07-29T06:05:06;99635.63;;;17.63;100.00
33075;BME280;19433;51.292;6.868;2023-07-29T06:07:32;99640.06;;;17.58;100.00
33075;BME280;19433;51.292;6.868;2023-07-29T06:09:59;99650.78;;;17.67;100.00
33075;BME280;19433;51.292;6.868;2023-07-29T06:12:24;99652.47;;;17.68;100.00
33075;BME280;19433;51.292;6.868;2023-07-29T06:14:49;99661.69;;;17.68;100.00
33075;BME280;19433;51.292;6.868;2023-07-29T06:17:14;99664.09;;;17.59;100.00
33075;BME280;19433;51.292;6.868;2023-07-29T06:19:40;99668.84;;;17.59;100.00
33075;BME280;19433;51.292;6.868;2023-07-29T06:22:05;99655.94;;;17.48;100.00
33075;BME280;19433;51.292;6.868;2023-07-29T06:24:31;99668.75;;;17.44;100.00
33075;BME280;19433;51.292;6.868;2023-07-29T06:26:56;99656.16;;;17.36;100.00
33075;BME280;19433;51.292;6.868;2023-07-29T06:29:21;99656.81;;;17.53;100.00
33075;BME280;19433;51.292;6.868;2023-07-29T06:31:47;99668.38;;;17.67;100.00
33075;BME280;19433;51.292;6.868;2023-07-29T06:34:12;99665.03;;;17.65;100.00
33075;BME280;19433;51.292;6.868;2023-07-29T06:36:37;99674.28;;;17.71;100.00
33075;BME280;19433;51.292;6.868;2023-07-29T06:39:03;99674.50;;;17.64;100.00
33075;BME280;19433;51.292;6.868;2023-07-29T06:41:28;99673.97;;;17.67;100.00
33075;BME280;19433;51.292;6.868;2023-07-29T06:43:53;99678.88;;;17.97;100.00
33075;BME280;19433;51.292;6.868;2023-07-29T06:46:18;99666.91;;;18.02;100.00
33075;BME280;19433;51.292;6.868;2023-07-29T06:48:44;99663.81;;;18.08;100.00
33075;BME280;19433;51.292;6.868;2023-07-29T06:51:09;99662.72;;;18.09;100.00
33075;BME280;19433;51.292;6.868;2023-07-29T06:53:34;99665.84;;;18.18;100.00
33075;BME280;19433;51.292;6.868;2023-07-29T06:55:59;99652.03;;;18.89;100.00
33075;BME280;19433;51.292;6.868;2023-07-29T06:58:25;99655.38;;;19.11;100.00
33075;BME280;19433;51.292;6.868;2023-07-29T07:00:50;99670.50;;;19.51;100.00
33075;BME280;19433;51.292;6.868;2023-07-29T07:03:15;99677.13;;;19.90;100.00
33075;BME280;19433;51.292;6.868;2023-07-29T07:05:41;99673.28;;;19.61;100.00
33075;BME280;19433;51.292;6.868;2023-07-29T07:08:06;99676.69;;;20.38;99.13
33075;BME280;19433;51.292;6.868;2023-07-29T07:10:31;99690.66;;;21.36;94.81
33075;BME280;19433;51.292;6.868;2023-07-29T07:12:59;99691.16;;;21.96;87.61
33075;BME280;19433;51.292;6.868;2023-07-29T07:15:24;99691.22;;;21.62;89.49
33075;BME280;19433;51.292;6.868;2023-07-29T07:17:51;99693.53;;;21.26;89.07
33075;BME280;19433;51.292;6.868;2023-07-29T07:20:16;99686.31;;;20.76;92.89
33075;BME280;19433;51.292;6.868;2023-07-29T07:22:41;99687.72;;;20.73;92.53
33075;BME280;19433;51.292;6.868;2023-07-29T07:25:07;99679.25;;;20.78;93.22
33075;BME280;19433;51.292;6.868;2023-07-29T07:27:32;99669.03;;;20.48;93.91
33075;BME280;19433;51.292;6.868;2023-07-29T07:29:58;99677.63;;;20.67;94.67
33075;BME280;19433;51.292;6.868;2023-07-29T07:32:23;99678.63;;;20.86;94.48
33075;BME280;19433;51.292;6.868;2023-07-29T07:34:48;99675.06;;;21.10;92.56
33075;BME280;19433;51.292;6.868;2023-07-29T07:37:13;99685.09;;;22.55;89.95
33075;BME280;19433;51.292;6.868;2023-07-29T07:39:39;99706.34;;;23.74;81.14
33075;BME280;19433;51.292;6.868;2023-07-29T07:42:04;99698.22;;;24.00;79.13
33075;BME280;19433;51.292;6.868;2023-07-29T07:44:30;99715.97;;;23.87;77.95
33075;BME280;19433;51.292;6.868;2023-07-29T07:46:55;99707.88;;;24.12;77.46
33075;BME280;19433;51.292;6.868;2023-07-29T07:49:22;99707.94;;;23.80;77.77
33075;BME280;19433;51.292;6.868;2023-07-29T07:51:47;99704.44;;;23.69;77.74
33075;BME280;19433;51.292;6.868;2023-07-29T07:54:12;99704.75;;;24.28;75.15
33075;BME280;19433;51.292;6.868;2023-07-29T07:56:38;99720.06;;;24.90;71.28
33075;BME280;19433;51.292;6.868;2023-07-29T07:59:03;99718.31;;;26.06;69.75
33075;BME280;19433;51.292;6.868;2023-07-29T08:01:36;99725.81;;;27.76;61.63
33075;BME280;19433;51.292;6.868;2023-07-29T08:04:02;99719.97;;;27.72;59.57
33075;BME280;19433;51.292;6.868;2023-07-29T08:06:28;99719.81;;;27.25;60.04
33075;BME280;19433;51.292;6.868;2023-07-29T08:08:53;99717.91;;;28.54;58.38
33075;BME280;19433;51.292;6.868;2023-07-29T08:11:18;99720.06;;;28.10;57.22
33075;BME280;19433;51.292;6.868;2023-07-29T08:13:43;99718.56;;;26.26;60.62
33075;BME280;19433;51.292;6.868;2023-07-29T08:16:09;99711.44;;;27.89;61.08
33075;BME280;19433;51.292;6.868;2023-07-29T08:18:34;99718.25;;;27.97;55.29
33075;BME280;19433;51.292;6.868;2023-07-29T08:21:00;99718.34;;;27.62;55.72
33075;BME280;19433;51.292;6.868;2023-07-29T08:23:30;99718.13;;;27.85;55.12
33075;BME280;19433;51.292;6.868;2023-07-29T08:25:57;99716.50;;;28.60;54.61
33075;BME280;19433;51.292;6.868;2023-07-29T08:28:34;99727.97;;;30.42;48.85
33075;BME280;19433;51.292;6.868;2023-07-29T08:31:00;99723.00;;;29.94;48.50
33075;BME280;19433;51.292;6.868;2023-07-29T08:33:25;99722.19;;;29.93;47.98
33075;BME280;19433;51.292;6.868;2023-07-29T08:35:51;99714.81;;;28.67;50.47
33075;BME280;19433;51.292;6.868;2023-07-29T08:38:16;99709.38;;;28.07;52.27
33075;BME280;19433;51.292;6.868;2023-07-29T08:40:45;99699.97;;;27.34;54.59
33075;BME280;19433;51.292;6.868;2023-07-29T08:43:14;99710.56;;;29.03;50.68
33075;BME280;19433;51.292;6.868;2023-07-29T08:45:43;99709.75;;;30.55;47.02
33075;BME280;19433;51.292;6.868;2023-07-29T08:48:10;99706.66;;;30.03;44.23
33075;BME280;19433;51.292;6.868;2023-07-29T08:50:36;99704.22;;;30.38;46.14
33075;BME280;19433;51.292;6.868;2023-07-29T08:53:05;99709.69;;;31.16;43.73
33075;BME280;19433;51.292;6.868;2023-07-29T08:55:31;99700.63;;;32.41;40.58
33075;BME280;19433;51.292;6.868;2023-07-29T08:57:57;99705.50;;;32.72;38.05
33075;BME280;19433;51.292;6.868;2023-07-29T09:00:23;99717.44;;;34.02;36.83
33075;BME280;19433;51.292;6.868;2023-07-29T09:02:49;99715.38;;;32.59;37.18
33075;BME280;19433;51.292;6.868;2023-07-29T09:05:14;99728.28;;;33.93;36.68
33075;BME280;19433;51.292;6.868;2023-07-29T09:07:40;99726.59;;;33.15;36.10
33075;BME280;19433;51.292;6.868;2023-07-29T09:10:08;99721.56;;;32.30;38.06
33075;BME280;19433;51.292;6.868;2023-07-29T09:12:35;99719.91;;;30.44;42.44
33075;BME280;19433;51.292;6.868;2023-07-29T09:15:01;99707.53;;;28.87;46.01
33075;BME280;19433;51.292;6.868;2023-07-29T09:17:26;99699.13;;;27.77;48.93
33075;BME280;19433;51.292;6.868;2023-07-29T09:19:51;99706.34;;;26.17;54.83
33075;BME280;19433;51.292;6.868;2023-07-29T09:22:18;99689.78;;;24.54;61.47
33075;BME280;19433;51.292;6.868;2023-07-29T09:24:45;99698.50;;;23.71;68.33
33075;BME280;19433;51.292;6.868;2023-07-29T09:27:26;99694.47;;;22.69;71.50
33075;BME280;19433;51.292;6.868;2023-07-29T09:29:55;99687.94;;;22.31;74.80
33075;BME280;19433;51.292;6.868;2023-07-29T09:32:22;99691.59;;;22.08;77.48
33075;BME280;19433;51.292;6.868;2023-07-29T09:34:48;99687.59;;;21.85;79.13
33075;BME280;19433;51.292;6.868;2023-07-29T09:37:32;99694.53;;;21.69;79.98
33075;BME280;19433;51.292;6.868;2023-07-29T09:39:57;99686.09;;;21.40;80.91
33075;BME280;19433;51.292;6.868;2023-07-29T09:42:23;99691.78;;;21.35;82.76
33075;BME280;19433;51.292;6.868;2023-07-29T09:44:49;99683.66;;;21.28;82.66
33075;BME280;19433;51.292;6.868;2023-07-29T09:47:22;99684.81;;;21.27;83.53
33075;BME280;19433;51.292;6.868;2023-07-29T09:49:48;99687.97;;;21.16;83.45
33075;BME280;19433;51.292;6.868;2023-07-29T09:52:18;99682.25;;;20.92;86.41
33075;BME280;19433;51.292;6.868;2023-07-29T09:54:45;99687.06;;;20.42;87.52
33075;BME280;19433;51.292;6.868;2023-07-29T09:57:12;99690.84;;;19.97;90.91
33075;BME280;19433;51.292;6.868;2023-07-29T09:59:38;99679.03;;;20.15;90.63
33075;BME280;19433;51.292;6.868;2023-07-29T10:02:04;99678.22;;;21.08;86.19
33075;BME280;19433;51.292;6.868;2023-07-29T10:04:29;99674.72;;;23.91;73.38
33075;BME280;19433;51.292;6.868;2023-07-29T10:06:56;99709.06;;;26.79;58.28
33075;BME280;19433;51.292;6.868;2023-07-29T10:09:23;99712.63;;;27.19;55.73
33075;BME280;19433;51.292;6.868;2023-07-29T10:11:49;99713.09;;;26.87;56.21
33075;BME280;19433;51.292;6.868;2023-07-29T10:14:16;99706.66;;;26.07;58.94
33075;BME280;19433;51.292;6.868;2023-07-29T10:16:43;99698.72;;;25.87;62.38
33075;BME280;19433;51.292;6.868;2023-07-29T10:19:10;99700.63;;;26.00;58.74
33075;BME280;19433;51.292;6.868;2023-07-29T10:21:38;99696.09;;;25.46;61.15
33075;BME280;19433;51.292;6.868;2023-07-29T10:24:06;99686.47;;;25.24;64.40
33075;BME280;19433;51.292;6.868;2023-07-29T10:26:34;99692.28;;;25.64;63.74
33075;BME280;19433;51.292;6.868;2023-07-29T10:29:04;99691.66;;;26.46;58.92
33075;BME280;19433;51.292;6.868;2023-07-29T10:31:30;99682.66;;;26.36;57.09
33075;BME280;19433;51.292;6.868;2023-07-29T10:33:56;99695.66;;;25.75;59.90
33075;BME280;19433;51.292;6.868;2023-07-29T10:36:22;99696.13;;;24.74;62.67
33075;BME280;19433;51.292;6.868;2023-07-29T10:38:47;99687.81;;;24.28;64.05
33075;BME280;19433;51.292;6.868;2023-07-29T10:41:13;99689.38;;;23.60;67.67
33075;BME280;19433;51.292;6.868;2023-07-29T10:43:38;99693.13;;;23.56;68.49
33075;BME280;19433;51.292;6.868;2023-07-29T10:46:17;99689.94;;;23.43;69.78
33075;BME280;19433;51.292;6.868;2023-07-29T10:48:54;99690.28;;;24.02;70.83
33075;BME280;19433;51.292;6.868;2023-07-29T10:51:37;99689.16;;;24.58;65.79
33075;BME280;19433;51.292;6.868;2023-07-29T10:54:04;99689.63;;;24.87;64.50
33075;BME280;19433;51.292;6.868;2023-07-29T10:56:36;99675.25;;;24.47;66.14
33075;BME280;19433;51.292;6.868;2023-07-29T11:01:38;99689.34;;;25.11;63.75
33075;BME280;19433;51.292;6.868;2023-07-29T11:09:51;99663.28;;;24.64;64.56
33075;BME280;19433;51.292;6.868;2023-07-29T11:12:45;99679.19;;;23.92;69.07
33075;BME280;19433;51.292;6.868;2023-07-29T11:15:16;99675.06;;;23.57;69.67
33075;BME280;19433;51.292;6.868;2023-07-29T11:17:55;99660.59;;;23.12;71.92
33075;BME280;19433;51.292;6.868;2023-07-29T11:20:25;99672.56;;;22.85;72.67
33075;BME280;19433;51.292;6.868;2023-07-29T11:22:53;99672.94;;;22.78;72.56
33075;BME280;19433;51.292;6.868;2023-07-29T11:25:18;99672.09;;;22.78;71.33
33075;BME280;19433;51.292;6.868;2023-07-29T11:27:45;99667.06;;;22.56;75.20
33075;BME280;19433;51.292;6.868;2023-07-29T11:30:12;99663.56;;;22.22;76.33
33075;BME280;19433;51.292;6.868;2023-07-29T11:32:39;99683.25;;;21.98;78.25
33075;BME280;19433;51.292;6.868;2023-07-29T11:35:06;99683.88;;;21.66;80.30
33075;BME280;19433;51.292;6.868;2023-07-29T11:37:33;99676.06;;;21.87;80.79
33075;BME280;19433;51.292;6.868;2023-07-29T11:39:59;99678.50;;;25.04;69.05
33075;BME280;19433;51.292;6.868;2023-07-29T11:42:26;99690.00;;;28.09;54.42
33075;BME280;19433;51.292;6.868;2023-07-29T11:44:51;99698.13;;;30.15;46.05
33075;BME280;19433;51.292;6.868;2023-07-29T11:47:16;99705.53;;;30.53;44.61
33075;BME280;19433;51.292;6.868;2023-07-29T11:49:42;99690.91;;;28.30;47.49
33075;BME280;19433;51.292;6.868;2023-07-29T11:52:08;99685.94;;;27.20;53.12
33075;BME280;19433;51.292;6.868;2023-07-29T11:54:37;99680.56;;;25.35;56.94
33075;BME280;19433;51.292;6.868;2023-07-29T11:57:06;99680.88;;;24.75;61.62
33075;BME280;19433;51.292;6.868;2023-07-29T11:59:33;99682.03;;;24.46;61.68
33075;BME280;19433;51.292;6.868;2023-07-29T12:02:00;99665.50;;;24.53;63.44
33075;BME280;19433;51.292;6.868;2023-07-29T12:04:25;99678.09;;;24.83;64.66
33075;BME280;19433;51.292;6.868;2023-07-29T12:06:51;99668.13;;;24.09;67.29
33075;BME280;19433;51.292;6.868;2023-07-29T12:09:16;99666.00;;;23.73;69.67
33075;BME280;19433;51.292;6.868;2023-07-29T12:11:42;99660.31;;;25.64;65.02
33075;BME280;19433;51.292;6.868;2023-07-29T12:14:07;99679.31;;;27.97;54.86
33075;BME280;19433;51.292;6.868;2023-07-29T12:16:43;99675.88;;;29.30;49.49
33075;BME280;19433;51.292;6.868;2023-07-29T12:19:08;99673.34;;;30.76;46.56
33075;BME280;19433;51.292;6.868;2023-07-29T12:21:33;99676.66;;;31.71;42.14
33075;BME280;19433;51.292;6.868;2023-07-29T12:23:59;99688.88;;;31.16;42.30
33075;BME280;19433;51.292;6.868;2023-07-29T12:26:29;99684.25;;;31.11;44.47
33075;BME280;19433;51.292;6.868;2023-07-29T12:28:54;99684.41;;;30.66;46.17
33075;BME280;19433;51.292;6.868;2023-07-29T12:31:21;99673.13;;;29.01;47.74
33075;BME280;19433;51.292;6.868;2023-07-29T12:33:46;99671.75;;;28.57;50.54
33075;BME280;19433;51.292;6.868;2023-07-29T12:36:12;99672.06;;;29.47;46.62
33075;BME280;19433;51.292;6.868;2023-07-29T12:38:37;99680.47;;;30.83;42.97
33075;BME280;19433;51.292;6.868;2023-07-29T12:41:02;99672.19;;;31.58;41.20
33075;BME280;19433;51.292;6.868;2023-07-29T12:43:28;99676.03;;;31.77;39.99
33075;BME280;19433;51.292;6.868;2023-07-29T12:45:53;99677.75;;;32.41;38.69
33075;BME280;19433;51.292;6.868;2023-07-29T12:48:19;99674.34;;;32.20;40.72
33075;BME280;19433;51.292;6.868;2023-07-29T12:50:44;99669.63;;;33.10;38.65
33075;BME280;19433;51.292;6.868;2023-07-29T12:53:10;99661.84;;;33.45;37.10
33075;BME280;19433;51.292;6.868;2023-07-29T12:55:36;99666.25;;;32.89;38.35
33075;BME280;19433;51.292;6.868;2023-07-29T12:58:02;99662.44;;;33.00;37.67
33075;BME280;19433;51.292;6.868;2023-07-29T13:00:27;99664.50;;;33.00;38.48